createdAt,value
2023-02-15T00:00:19.397Z,2.40
2023-02-15T00:02:48.139Z,2.53
2023-02-15T00:05:16.614Z,2.40
2023-02-15T00:07:44.951Z,1.85
2023-02-15T00:10:13.951Z,3.58
2023-02-15T00:12:42.312Z,2.67
2023-02-15T00:15:11.194Z,3.92
2023-02-15T00:17:39.530Z,5.35
2023-02-15T00:20:08.611Z,8.60
2023-02-15T00:22:36.982Z,4.05
2023-02-15T00:25:05.766Z,6.55
2023-02-15T00:27:36.171Z,3.22
2023-02-15T00:30:05.078Z,6.05
2023-02-15T00:32:33.790Z,5.30
2023-02-15T00:35:02.089Z,5.68
2023-02-15T00:37:30.442Z,7.60
2023-02-15T00:39:58.821Z,5.93
2023-02-15T00:42:27.225Z,6.15
2023-02-15T00:44:55.531Z,5.55
2023-02-15T00:47:23.836Z,5.00
2023-02-15T00:49:52.104Z,7.28
2023-02-15T00:52:20.430Z,5.38
2023-02-15T00:54:49.057Z,5.60
2023-02-15T00:57:17.350Z,7.30
2023-02-15T00:59:45.786Z,4.88
2023-02-15T01:02:14.352Z,7.03
2023-02-15T01:04:42.790Z,3.45
2023-02-15T01:07:11.113Z,6.07
2023-02-15T01:09:39.397Z,8.40
2023-02-15T01:12:07.750Z,5.70
2023-02-15T01:14:35.996Z,8.45
2023-02-15T01:17:04.401Z,5.43
2023-02-15T01:19:32.733Z,5.93
2023-02-15T01:22:01.046Z,10.90
2023-02-15T01:24:29.407Z,6.13
2023-02-15T01:26:57.727Z,7.72
2023-02-15T01:29:26.044Z,5.07
2023-02-15T01:31:54.403Z,9.77
2023-02-15T01:34:22.791Z,6.80
2023-02-15T01:36:51.160Z,5.70
2023-02-15T01:39:19.535Z,7.88
2023-02-15T01:41:48.074Z,9.07
2023-02-15T01:44:58.284Z,9.75
2023-02-15T01:47:45.809Z,8.93
2023-02-15T01:50:18.080Z,10.50
2023-02-15T01:53:02.609Z,7.20
2023-02-15T01:55:35.935Z,6.25
2023-02-15T01:58:05.014Z,6.38
2023-02-15T02:00:35.088Z,3.30
2023-02-15T02:03:05.818Z,4.50
2023-02-15T02:05:35.306Z,2.72
2023-02-15T02:08:05.163Z,3.50
2023-02-15T02:10:33.601Z,5.20
2023-02-15T02:13:05.279Z,4.22
2023-02-15T02:16:05.029Z,4.75
2023-02-15T02:18:53.703Z,5.70
2023-02-15T02:21:43.584Z,2.90
2023-02-15T02:24:31.950Z,3.40
2023-02-15T02:27:15.268Z,4.35
2023-02-15T02:29:58.801Z,5.80
2023-02-15T02:32:49.352Z,5.70
2023-02-15T02:35:46.774Z,4.63
2023-02-15T02:38:42.763Z,5.78
2023-02-15T02:41:36.365Z,5.85
2023-02-15T02:44:21.375Z,4.75
2023-02-15T02:47:03.766Z,6.60
2023-02-15T02:49:43.402Z,7.22
2023-02-15T02:52:38.353Z,10.55
2023-02-15T02:55:12.563Z,11.30
2023-02-15T02:57:50.288Z,5.18
2023-02-15T03:00:20.910Z,6.90
2023-02-15T03:02:54.445Z,6.25
2023-02-15T03:05:27.706Z,7.07
2023-02-15T03:07:58.842Z,8.45
2023-02-15T03:10:27.397Z,6.35
2023-02-15T03:12:55.943Z,8.57
2023-02-15T03:15:52.030Z,7.93
2023-02-15T03:18:25.006Z,4.95
2023-02-15T03:20:55.049Z,5.45
2023-02-15T03:23:27.280Z,7.97
2023-02-15T03:26:01.548Z,8.20
2023-02-15T03:28:51.031Z,9.25
2023-02-15T03:31:22.811Z,5.93
2023-02-15T03:34:00.212Z,10.20
2023-02-15T03:36:52.166Z,7.32
2023-02-15T03:39:44.836Z,6.25
2023-02-15T03:42:21.518Z,5.13
2023-02-15T03:44:55.670Z,7.28
2023-02-15T03:47:38.681Z,9.98
2023-02-15T03:50:34.001Z,8.00
2023-02-15T03:53:05.845Z,7.10
2023-02-15T03:55:35.878Z,4.72
2023-02-15T03:58:23.381Z,8.13
2023-02-15T04:01:20.660Z,3.38
2023-02-15T04:03:59.644Z,2.40
2023-02-15T04:06:27.952Z,4.43
2023-02-15T04:09:14.792Z,3.17
2023-02-15T04:11:43.155Z,1.90
2023-02-15T04:14:29.605Z,3.10
2023-02-15T04:16:57.922Z,3.13
2023-02-15T04:19:44.413Z,4.25
2023-02-15T04:22:31.106Z,2.92
2023-02-15T04:25:11.371Z,5.35
2023-02-15T04:27:41.134Z,4.65
2023-02-15T04:30:11.197Z,2.85
2023-02-15T04:32:40.317Z,3.05
2023-02-15T04:35:09.369Z,4.28
2023-02-15T04:37:37.749Z,4.88
2023-02-15T04:40:07.571Z,2.70
2023-02-15T04:42:35.900Z,2.63
2023-02-15T04:45:04.639Z,4.15
2023-02-15T04:47:33.105Z,1.20
2023-02-15T04:50:01.505Z,2.65
2023-02-15T04:52:29.793Z,2.45
2023-02-15T04:54:58.160Z,2.42
2023-02-15T04:57:26.539Z,3.50
2023-02-15T04:59:54.868Z,4.20
2023-02-15T05:02:23.269Z,3.72
2023-02-15T05:04:51.602Z,2.83
2023-02-15T05:07:22.081Z,5.20
2023-02-15T05:09:50.542Z,3.33
2023-02-15T05:12:18.848Z,3.88
2023-02-15T05:14:47.110Z,5.85
2023-02-15T05:17:15.473Z,5.47
2023-02-15T05:19:43.762Z,3.22
2023-02-15T05:22:12.023Z,3.90
2023-02-15T05:24:58.689Z,5.53
2023-02-15T05:27:45.228Z,5.35
2023-02-15T05:30:14.436Z,4.40
2023-02-15T05:32:42.910Z,4.55
2023-02-15T05:35:16.479Z,5.13
2023-02-15T05:37:44.816Z,6.40
2023-02-15T05:40:13.539Z,4.53
2023-02-15T05:42:41.977Z,3.92
2023-02-15T05:45:10.501Z,9.38
2023-02-15T05:47:38.896Z,5.38
2023-02-15T05:50:08.326Z,5.55
2023-02-15T05:52:37.536Z,5.35
2023-02-15T05:55:07.109Z,7.07
2023-02-15T05:57:35.381Z,5.43
2023-02-15T06:00:06.199Z,3.60
2023-02-15T06:02:38.323Z,2.75
2023-02-15T06:05:07.924Z,4.43
2023-02-15T06:07:36.266Z,4.15
2023-02-15T06:10:05.572Z,3.80
2023-02-15T06:12:33.952Z,7.22
2023-02-15T06:15:02.261Z,2.67
2023-02-15T06:17:30.754Z,3.70
2023-02-15T06:19:59.070Z,3.10
2023-02-15T06:22:27.424Z,6.38
2023-02-15T06:24:56.654Z,3.60
2023-02-15T06:27:24.979Z,4.18
2023-02-15T06:29:53.348Z,4.47
2023-02-15T06:32:21.697Z,5.45
2023-02-15T06:34:50.220Z,5.60
2023-02-15T06:37:18.478Z,3.65
2023-02-15T06:39:46.791Z,5.30
2023-02-15T06:42:15.114Z,4.85
2023-02-15T06:44:43.401Z,4.28
2023-02-15T06:47:12.615Z,4.28
2023-02-15T06:49:41.017Z,6.20
2023-02-15T06:52:09.557Z,3.88
2023-02-15T06:54:37.887Z,2.95
2023-02-15T06:57:06.161Z,2.55
2023-02-15T06:59:34.416Z,2.05
2023-02-15T07:02:02.681Z,2.88
2023-02-15T07:04:31.791Z,2.22
2023-02-15T07:07:00.108Z,1.70
2023-02-15T07:09:28.544Z,1.83
2023-02-15T07:12:17.496Z,3.28
2023-02-15T07:14:45.766Z,5.55
2023-02-15T07:17:32.811Z,3.33
2023-02-15T07:20:02.290Z,1.95
2023-02-15T07:22:30.618Z,1.23
2023-02-15T07:24:59.018Z,2.55
2023-02-15T07:27:27.394Z,2.30
2023-02-15T07:29:55.805Z,1.65
2023-02-15T07:32:24.173Z,1.65
2023-02-15T07:34:52.434Z,1.98
2023-02-15T07:37:20.703Z,4.55
2023-02-15T07:39:49.248Z,2.42
2023-02-15T07:42:17.719Z,3.20
2023-02-15T07:44:46.290Z,4.32
2023-02-15T07:47:14.645Z,5.05
2023-02-15T07:49:42.907Z,3.30
2023-02-15T07:52:11.349Z,4.00
2023-02-15T07:54:39.644Z,6.00
2023-02-15T07:57:08.032Z,3.65
2023-02-15T07:59:36.268Z,2.75
2023-02-15T08:02:04.579Z,3.92
2023-02-15T08:04:33.021Z,3.20
2023-02-15T08:07:01.294Z,4.10
2023-02-15T08:09:29.574Z,3.00
2023-02-15T08:11:57.857Z,2.95
2023-02-15T08:14:26.376Z,3.95
2023-02-15T08:17:01.017Z,4.30
2023-02-15T08:19:31.660Z,2.17
2023-02-15T08:22:06.168Z,3.22
2023-02-15T08:24:38.733Z,4.05
2023-02-15T08:27:08.804Z,3.60
2023-02-15T08:29:39.391Z,3.03
2023-02-15T08:32:11.029Z,3.05
2023-02-15T08:34:42.276Z,2.30
2023-02-15T08:37:11.360Z,2.25
2023-02-15T08:39:39.663Z,4.18
2023-02-15T08:42:07.979Z,3.08
2023-02-15T08:44:36.252Z,3.92
2023-02-15T08:47:05.389Z,3.05
2023-02-15T08:49:34.066Z,3.47
2023-02-15T08:52:02.476Z,4.75
2023-02-15T08:54:31.129Z,2.58
2023-02-15T08:56:59.472Z,3.55
2023-02-15T08:59:28.818Z,2.92
2023-02-15T09:01:57.432Z,4.18
2023-02-15T09:04:25.815Z,2.20
2023-02-15T09:06:54.128Z,3.38
2023-02-15T09:09:23.527Z,1.65
2023-02-15T09:11:58.694Z,2.38
2023-02-15T09:14:28.526Z,2.30
2023-02-15T09:16:57.396Z,2.72
2023-02-15T09:19:26.510Z,4.00
2023-02-15T09:21:54.870Z,1.80
2023-02-15T09:24:23.225Z,3.05
2023-02-15T09:26:51.700Z,2.58
2023-02-15T09:29:21.242Z,1.02
2023-02-15T09:31:52.174Z,1.20
2023-02-15T09:34:22.908Z,1.33
2023-02-15T09:36:52.931Z,1.85
2023-02-15T09:39:29.845Z,2.17
2023-02-15T09:42:19.092Z,2.85
2023-02-15T09:45:36.376Z,1.77
2023-02-15T09:48:42.410Z,0.95
2023-02-15T09:51:25.878Z,1.52
2023-02-15T09:54:18.319Z,1.95
2023-02-15T09:57:07.607Z,0.95
2023-02-15T09:59:44.755Z,0.40
2023-02-15T10:02:51.757Z,1.42
2023-02-15T10:05:26.932Z,0.63
2023-02-15T10:08:01.799Z,0.75
2023-02-15T10:10:54.029Z,0.68
2023-02-15T10:13:46.539Z,0.90
2023-02-15T10:16:22.299Z,1.25
2023-02-15T10:19:02.588Z,0.68
2023-02-15T10:21:57.002Z,2.35
2023-02-15T10:25:03.962Z,1.00
2023-02-15T10:27:37.318Z,1.13
2023-02-15T10:30:06.634Z,1.00
2023-02-15T10:32:49.784Z,0.82
2023-02-15T10:35:32.910Z,0.82
2023-02-15T10:38:15.846Z,1.42
2023-02-15T10:41:22.385Z,1.13
2023-02-15T10:44:28.890Z,0.70
2023-02-15T10:47:15.493Z,0.93
2023-02-15T10:49:58.944Z,0.65
2023-02-15T10:52:53.254Z,4.03
2023-02-15T10:55:28.356Z,1.00
2023-02-15T10:58:02.609Z,0.32
2023-02-15T11:00:44.032Z,1.13
2023-02-15T11:03:27.177Z,1.45
2023-02-15T11:06:14.051Z,0.60
2023-02-15T11:08:47.418Z,0.93
2023-02-15T11:11:29.924Z,0.63
2023-02-15T11:14:06.862Z,0.85
2023-02-15T11:16:39.336Z,2.70
2023-02-15T11:19:30.884Z,1.40
2023-02-15T11:22:05.999Z,1.50
2023-02-15T11:24:41.177Z,1.10
2023-02-15T11:27:16.736Z,0.85
2023-02-15T11:30:05.465Z,1.25
2023-02-15T11:32:37.772Z,1.08
2023-02-15T11:35:08.664Z,1.17
2023-02-15T11:38:00.947Z,1.25
2023-02-15T11:40:51.348Z,1.20
2023-02-15T11:43:41.187Z,0.80
2023-02-15T11:46:13.075Z,0.55
2023-02-15T11:48:41.932Z,1.67
2023-02-15T11:51:23.926Z,0.45
2023-02-15T11:53:53.784Z,0.73
2023-02-15T11:56:25.911Z,1.23
2023-02-15T11:59:01.855Z,0.95
2023-02-15T12:01:38.167Z,1.40
2023-02-15T12:04:20.502Z,1.50
2023-02-15T12:07:02.831Z,1.02
2023-02-15T12:10:01.756Z,1.08
2023-02-15T12:12:32.538Z,1.13
2023-02-15T12:15:07.166Z,0.60
2023-02-15T12:17:57.043Z,0.55
2023-02-15T12:20:34.111Z,1.05
2023-02-15T12:23:13.841Z,0.50
2023-02-15T12:25:56.446Z,1.73
2023-02-15T12:28:27.466Z,0.57
2023-02-15T12:30:57.825Z,0.40
2023-02-15T12:33:33.644Z,0.65
2023-02-15T12:36:20.953Z,0.82
2023-02-15T12:39:18.161Z,0.32
2023-02-15T12:42:08.366Z,0.82
2023-02-15T12:44:38.937Z,0.45
2023-02-15T12:47:22.008Z,1.10
2023-02-15T12:50:24.901Z,1.10
2023-02-15T12:53:07.557Z,0.20
2023-02-15T12:55:35.939Z,0.85
2023-02-15T12:58:20.309Z,0.20
2023-02-15T13:00:49.252Z,0.20
2023-02-15T13:03:25.838Z,0.20
2023-02-15T13:05:57.379Z,0.57
2023-02-15T13:08:35.511Z,0.40
2023-02-15T13:11:13.717Z,1.10
2023-02-15T13:14:06.250Z,1.15
2023-02-15T13:16:38.921Z,0.30
2023-02-15T13:19:16.824Z,0.43
2023-02-15T13:21:51.446Z,0.95
2023-02-15T13:24:27.910Z,1.35
2023-02-15T13:27:14.072Z,0.75
2023-02-15T13:29:47.448Z,0.63
2023-02-15T13:32:38.246Z,0.80
2023-02-15T13:35:10.203Z,0.60
2023-02-15T13:37:59.979Z,0.85
2023-02-15T13:40:47.557Z,1.13
2023-02-15T13:43:30.446Z,1.48
2023-02-15T13:46:23.656Z,1.10
2023-02-15T13:48:51.956Z,1.38
2023-02-15T13:51:27.942Z,0.93
2023-02-15T13:54:22.327Z,2.15
2023-02-15T13:57:09.256Z,0.68
2023-02-15T14:00:00.694Z,0.77
2023-02-15T14:02:47.011Z,0.68
2023-02-15T14:05:32.970Z,1.10
2023-02-15T14:08:15.284Z,0.55
2023-02-15T14:10:50.202Z,4.75
2023-02-15T14:13:51.917Z,0.75
2023-02-15T14:16:23.323Z,0.73
2023-02-15T14:19:08.846Z,2.05
2023-02-15T14:21:52.225Z,0.70
2023-02-15T14:24:33.479Z,1.95
2023-02-15T14:27:10.762Z,0.47
2023-02-15T14:30:00.925Z,0.98
2023-02-15T14:33:14.756Z,0.93
2023-02-15T14:35:47.409Z,0.68
2023-02-15T14:38:28.055Z,1.17
2023-02-15T14:41:08.998Z,0.88
2023-02-15T14:44:09.120Z,0.93
2023-02-15T14:47:04.593Z,1.02
2023-02-15T14:52:12.496Z,0.75
2023-02-15T14:57:08.526Z,1.17
2023-02-15T14:59:45.601Z,0.80
2023-02-15T15:02:19.694Z,1.02
2023-02-15T15:04:54.212Z,1.15
2023-02-15T15:07:48.567Z,0.88
2023-02-15T15:10:19.671Z,0.73
2023-02-15T15:12:51.399Z,1.23
2023-02-15T15:15:31.661Z,0.75
2023-02-15T15:18:09.505Z,0.32
2023-02-15T15:20:51.676Z,0.50
2023-02-15T15:23:20.310Z,3.13
2023-02-15T15:25:53.904Z,1.50
2023-02-15T15:28:47.978Z,1.00
2023-02-15T15:31:19.386Z,2.13
2023-02-15T15:34:21.498Z,1.25
2023-02-15T15:37:13.554Z,3.10
2023-02-15T15:40:14.875Z,1.17
2023-02-15T15:43:11.074Z,1.67
2023-02-15T15:46:12.922Z,2.22
2023-02-15T15:48:43.493Z,0.85
2023-02-15T15:51:23.164Z,1.65
2023-02-15T15:53:55.563Z,1.27
2023-02-15T15:56:32.116Z,1.45
2023-02-15T15:59:06.626Z,3.50
2023-02-15T16:01:44.522Z,0.82
2023-02-15T16:04:15.481Z,1.38
2023-02-15T16:06:43.997Z,1.80
2023-02-15T16:09:14.979Z,1.30
2023-02-15T16:11:43.747Z,5.82
2023-02-15T16:14:32.975Z,1.42
2023-02-15T16:17:06.354Z,2.35
2023-02-15T16:19:43.328Z,1.08
2023-02-15T16:22:25.483Z,3.88
2023-02-15T16:25:21.229Z,1.80
2023-02-15T16:27:51.212Z,0.80
2023-02-15T16:30:26.695Z,2.38
2023-02-15T16:33:07.516Z,4.28
2023-02-15T16:35:37.637Z,0.95
2023-02-15T16:38:06.635Z,2.10
2023-02-15T16:40:43.905Z,1.00
2023-02-15T16:43:23.655Z,2.05
2023-02-15T16:45:53.280Z,0.82
2023-02-15T16:48:27.868Z,1.67
2023-02-15T16:50:59.519Z,2.80
2023-02-15T16:53:31.666Z,1.13
2023-02-15T16:56:03.568Z,1.38
2023-02-15T16:58:47.242Z,1.15
2023-02-15T17:01:17.823Z,1.48
2023-02-15T17:03:52.247Z,0.75
2023-02-15T17:06:28.726Z,2.05
2023-02-15T17:09:15.372Z,0.65
2023-02-15T17:11:45.915Z,0.93
2023-02-15T17:14:22.512Z,1.38
2023-02-15T17:16:58.261Z,0.70
2023-02-15T17:19:35.561Z,1.98
2023-02-15T17:22:08.453Z,1.38
2023-02-15T17:24:40.314Z,1.63
2023-02-15T17:27:20.500Z,0.95
2023-02-15T17:29:53.445Z,0.50
2023-02-15T17:32:25.533Z,0.50
2023-02-15T17:35:05.848Z,0.43
2023-02-15T17:37:40.151Z,1.05
2023-02-15T17:40:33.173Z,0.47
2023-02-15T17:43:02.465Z,1.45
2023-02-15T17:45:36.530Z,0.40
2023-02-15T17:48:07.422Z,2.30
2023-02-15T17:50:35.723Z,1.45
2023-02-15T17:53:04.330Z,0.65
2023-02-15T17:55:42.123Z,1.45
2023-02-15T17:58:13.202Z,0.30
2023-02-15T18:01:08.849Z,0.55
2023-02-15T18:04:06.317Z,0.93
2023-02-15T18:06:55.152Z,0.68
2023-02-15T18:09:43.366Z,0.63
2023-02-15T18:12:27.528Z,0.45
2023-02-15T18:14:57.547Z,0.55
2023-02-15T18:17:43.944Z,0.38
2023-02-15T18:20:25.612Z,0.30
2023-02-15T18:22:55.167Z,0.30
2023-02-15T18:25:26.271Z,0.52
2023-02-15T18:27:55.339Z,0.77
2023-02-15T18:30:27.462Z,0.65
2023-02-15T18:32:58.461Z,0.45
2023-02-15T18:35:30.552Z,0.88
2023-02-15T18:38:00.928Z,0.40
2023-02-15T18:40:34.190Z,1.60
2023-02-15T18:43:02.627Z,0.30
2023-02-15T18:45:36.217Z,0.75
2023-02-15T18:48:10.834Z,1.23
2023-02-15T18:50:39.746Z,0.35
2023-02-15T18:53:16.396Z,0.90
2023-02-15T18:55:44.865Z,1.60
2023-02-15T18:58:22.326Z,1.65
2023-02-15T19:00:51.575Z,2.72
2023-02-15T19:03:20.018Z,0.35
2023-02-15T19:05:49.146Z,0.30
2023-02-15T19:08:25.322Z,0.20
2023-02-15T19:10:53.888Z,0.20
2023-02-15T19:13:22.116Z,0.50
2023-02-15T19:15:50.697Z,0.45
2023-02-15T19:18:20.091Z,0.77
2023-02-15T19:20:49.675Z,0.50
2023-02-15T19:23:24.687Z,0.98
2023-02-15T19:25:55.264Z,0.30
2023-02-15T19:28:31.762Z,1.17
2023-02-15T19:31:00.072Z,0.65
2023-02-15T19:33:28.370Z,0.32
2023-02-15T19:35:58.200Z,0.95
2023-02-15T19:38:34.487Z,0.30
2023-02-15T19:41:06.959Z,0.45
2023-02-15T19:43:35.949Z,0.70
2023-02-15T19:46:04.805Z,0.28
2023-02-15T19:48:35.544Z,1.05
2023-02-15T19:51:05.250Z,0.40
2023-02-15T19:53:33.663Z,0.30
2023-02-15T19:56:02.183Z,0.43
2023-02-15T19:58:30.868Z,1.60
2023-02-15T20:00:59.208Z,1.60
2023-02-15T20:03:27.496Z,1.33
2023-02-15T20:05:55.827Z,1.13
2023-02-15T20:08:24.765Z,0.57
2023-02-15T20:10:53.037Z,0.38
2023-02-15T20:13:21.978Z,0.55
2023-02-15T20:15:51.703Z,0.47
2023-02-15T20:18:22.444Z,0.70
2023-02-15T20:20:56.210Z,0.63
2023-02-15T20:23:30.980Z,1.27
2023-02-15T20:26:07.710Z,0.73
2023-02-15T20:28:36.031Z,1.52
2023-02-15T20:31:04.604Z,1.80
2023-02-15T20:33:33.097Z,0.45
2023-02-15T20:36:01.488Z,2.30
2023-02-15T20:38:32.298Z,1.02
2023-02-15T20:41:20.308Z,0.30
2023-02-15T20:43:48.666Z,0.45
2023-02-15T20:46:17.363Z,2.50
2023-02-15T20:48:46.000Z,0.40
2023-02-15T20:51:22.966Z,0.38
2023-02-15T20:53:51.619Z,1.02
2023-02-15T20:56:24.845Z,0.32
2023-02-15T20:58:54.273Z,0.68
2023-02-15T21:01:22.699Z,0.47
2023-02-15T21:03:51.182Z,0.30
2023-02-15T21:06:19.725Z,0.30
2023-02-15T21:08:48.341Z,0.77
2023-02-15T21:11:24.249Z,0.30
2023-02-15T21:13:52.664Z,0.30
2023-02-15T21:16:21.975Z,0.43
2023-02-15T21:18:50.686Z,0.40
2023-02-15T21:21:24.521Z,1.80
2023-02-15T21:23:54.607Z,1.15
2023-02-15T21:26:24.198Z,0.73
2023-02-15T21:28:52.543Z,3.50
2023-02-15T21:31:26.254Z,1.13
2023-02-15T21:33:54.723Z,0.80
2023-02-15T21:36:26.174Z,0.85
2023-02-15T21:38:57.246Z,0.50
2023-02-15T21:41:46.760Z,0.75
2023-02-15T21:44:43.950Z,0.82
2023-02-15T21:47:48.973Z,0.35
2023-02-15T21:50:41.790Z,0.68
2023-02-15T21:53:21.127Z,0.50
2023-02-15T21:55:50.288Z,0.50
2023-02-15T21:58:23.865Z,0.88
2023-02-15T22:00:55.573Z,0.35
2023-02-15T22:03:26.295Z,0.77
2023-02-15T22:05:54.921Z,0.70
2023-02-15T22:08:23.271Z,0.52
2023-02-15T22:10:51.844Z,1.35
2023-02-15T22:13:29.193Z,0.73
2023-02-15T22:15:58.464Z,1.10
2023-02-15T22:18:31.533Z,0.40
2023-02-15T22:21:02.959Z,1.67
2023-02-15T22:23:31.895Z,1.05
2023-02-15T22:26:08.767Z,2.05
2023-02-15T22:28:41.349Z,0.50
2023-02-15T22:31:15.246Z,0.50
2023-02-15T22:33:45.669Z,0.68
2023-02-15T22:36:29.779Z,0.85
2023-02-15T22:38:58.691Z,2.03
2023-02-15T22:41:30.457Z,1.27
2023-02-15T22:43:59.280Z,0.65
2023-02-15T22:46:27.759Z,0.75
2023-02-15T22:48:56.337Z,0.57
2023-02-15T22:51:25.874Z,1.73
2023-02-15T22:53:54.771Z,0.30
2023-02-15T22:56:33.516Z,0.77
2023-02-15T22:59:06.443Z,1.05
2023-02-15T23:01:37.138Z,1.10
2023-02-15T23:04:05.880Z,0.70
2023-02-15T23:06:35.439Z,0.98
2023-02-15T23:09:03.892Z,0.57
2023-02-15T23:11:32.266Z,1.40
2023-02-15T23:14:00.637Z,0.60
2023-02-15T23:16:29.036Z,0.82
2023-02-15T23:18:57.316Z,0.40
2023-02-15T23:21:32.574Z,0.73
2023-02-15T23:24:30.960Z,1.17
2023-02-15T23:27:19.125Z,0.30
2023-02-15T23:29:48.172Z,0.40
2023-02-15T23:32:17.214Z,0.68
2023-02-15T23:34:45.715Z,1.27
2023-02-15T23:37:15.510Z,0.52
2023-02-15T23:40:02.058Z,0.85
2023-02-15T23:42:34.393Z,1.00
2023-02-15T23:45:03.535Z,0.80
2023-02-15T23:47:54.814Z,0.30
2023-02-15T23:50:29.533Z,0.52
2023-02-15T23:52:58.967Z,0.40
2023-02-15T23:55:36.162Z,2.28
2023-02-15T23:58:12.920Z,1.60
